createdAt,value
2022-08-30T00:00:18.954Z,4.10
2022-08-30T00:03:07.828Z,4.10
2022-08-30T00:08:44.881Z,4.00
2022-08-30T00:11:31.862Z,3.88
2022-08-30T00:14:20.458Z,4.38
2022-08-30T00:17:07.498Z,4.30
2022-08-30T00:19:56.067Z,4.13
2022-08-30T00:22:43.057Z,4.20
2022-08-30T00:25:30.126Z,4.05
2022-08-30T00:28:17.519Z,4.22
2022-08-30T00:31:05.643Z,4.20
2022-08-30T00:33:52.661Z,4.05
2022-08-30T00:36:39.695Z,4.03
2022-08-30T00:39:29.948Z,3.80
2022-08-30T00:42:18.593Z,3.80
2022-08-30T00:45:20.199Z,3.65
2022-08-30T00:48:07.849Z,3.53
2022-08-30T00:51:00.495Z,4.43
2022-08-30T00:53:50.878Z,3.97
2022-08-30T00:56:38.226Z,4.05
2022-08-30T00:59:26.388Z,4.00
2022-08-30T01:02:14.410Z,4.05
2022-08-30T01:05:04.527Z,4.07
2022-08-30T01:07:51.836Z,3.83
2022-08-30T01:10:39.221Z,3.92
2022-08-30T01:13:28.279Z,4.05
2022-08-30T01:16:15.765Z,3.80
2022-08-30T01:19:03.707Z,3.67
2022-08-30T01:21:57.450Z,4.28
2022-08-30T01:24:47.958Z,4.15
2022-08-30T01:27:38.569Z,4.05
2022-08-30T01:30:25.591Z,3.80
2022-08-30T01:33:13.156Z,3.83
2022-08-30T01:36:03.840Z,3.80
2022-08-30T01:38:56.983Z,3.97
2022-08-30T01:41:44.542Z,4.00
2022-08-30T01:44:31.572Z,3.80
2022-08-30T01:47:19.433Z,4.03
2022-08-30T01:50:08.226Z,3.60
2022-08-30T01:52:55.309Z,3.80
2022-08-30T01:55:42.839Z,3.45
2022-08-30T01:58:30.075Z,3.00
2022-08-30T02:01:19.896Z,3.40
2022-08-30T02:04:09.137Z,3.33
2022-08-30T02:06:56.186Z,2.70
2022-08-30T02:09:43.308Z,2.95
2022-08-30T02:12:33.229Z,2.53
2022-08-30T02:15:20.469Z,2.88
2022-08-30T02:18:07.384Z,2.78
2022-08-30T02:20:54.494Z,2.90
2022-08-30T02:23:42.405Z,3.03
2022-08-30T02:26:29.768Z,2.65
2022-08-30T02:29:17.028Z,2.60
2022-08-30T02:32:04.509Z,2.53
2022-08-30T02:34:51.755Z,3.00
2022-08-30T02:37:39.377Z,2.80
2022-08-30T02:40:26.387Z,2.53
2022-08-30T02:43:13.468Z,2.72
2022-08-30T02:46:00.449Z,2.65
2022-08-30T02:48:47.543Z,3.00
2022-08-30T02:51:35.241Z,2.53
2022-08-30T02:54:22.235Z,2.80
2022-08-30T02:57:19.878Z,3.10
2022-08-30T03:00:14.087Z,2.58
2022-08-30T03:03:03.739Z,2.88
2022-08-30T03:05:50.895Z,2.60
2022-08-30T03:08:38.176Z,2.78
2022-08-30T03:11:25.508Z,2.95
2022-08-30T03:14:12.550Z,2.80
2022-08-30T03:16:59.614Z,2.67
2022-08-30T03:19:46.740Z,3.60
2022-08-30T03:22:34.006Z,3.20
2022-08-30T03:25:21.859Z,3.40
2022-08-30T03:28:09.389Z,3.15
2022-08-30T03:30:56.746Z,2.63
2022-08-30T03:33:43.742Z,2.78
2022-08-30T03:36:30.898Z,2.53
2022-08-30T03:39:18.019Z,2.53
2022-08-30T03:42:05.230Z,2.30
2022-08-30T03:44:52.265Z,2.20
2022-08-30T03:47:39.505Z,2.20
2022-08-30T03:50:30.651Z,2.20
2022-08-30T03:53:17.719Z,2.60
2022-08-30T03:56:05.039Z,2.20
2022-08-30T03:58:52.052Z,2.60
2022-08-30T04:01:39.775Z,2.63
2022-08-30T04:04:27.109Z,2.53
2022-08-30T04:07:14.535Z,2.38
2022-08-30T04:10:01.496Z,2.40
2022-08-30T04:12:49.983Z,2.20
2022-08-30T04:15:36.981Z,2.30
2022-08-30T04:18:24.030Z,2.70
2022-08-30T04:21:13.940Z,2.53
2022-08-30T04:24:01.398Z,2.30
2022-08-30T04:26:48.363Z,2.30
2022-08-30T04:29:35.454Z,2.28
2022-08-30T04:32:22.551Z,2.60
2022-08-30T04:35:10.788Z,2.65
2022-08-30T04:37:57.697Z,2.33
2022-08-30T04:40:48.648Z,2.25
2022-08-30T04:43:35.605Z,2.35
2022-08-30T04:46:22.705Z,2.30
2022-08-30T04:49:09.671Z,2.55
2022-08-30T04:51:56.706Z,2.70
2022-08-30T04:54:43.642Z,2.42
2022-08-30T04:57:30.825Z,2.30
2022-08-30T05:00:20.577Z,2.40
2022-08-30T05:03:07.788Z,3.00
2022-08-30T05:05:54.771Z,2.72
2022-08-30T05:08:45.977Z,3.38
2022-08-30T05:11:33.595Z,3.47
2022-08-30T05:14:20.670Z,3.05
2022-08-30T05:17:07.585Z,3.58
2022-08-30T05:19:54.616Z,3.50
2022-08-30T05:22:53.486Z,3.50
2022-08-30T05:25:42.519Z,2.88
2022-08-30T05:28:29.417Z,3.30
2022-08-30T05:31:20.345Z,3.60
2022-08-30T05:34:07.267Z,3.17
2022-08-30T05:36:54.369Z,3.33
2022-08-30T05:39:50.761Z,3.13
2022-08-30T05:42:41.569Z,3.20
2022-08-30T05:45:28.594Z,3.22
2022-08-30T05:48:15.780Z,3.15
2022-08-30T05:51:17.111Z,3.08
2022-08-30T05:54:06.257Z,2.92
2022-08-30T05:56:53.166Z,3.03
2022-08-30T05:59:40.187Z,2.90
2022-08-30T06:02:27.217Z,2.95
2022-08-30T06:05:14.722Z,3.42
2022-08-30T06:08:01.666Z,3.30
2022-08-30T06:10:48.891Z,3.15
2022-08-30T06:13:35.841Z,3.70
2022-08-30T06:16:25.677Z,3.63
2022-08-30T06:19:14.957Z,3.60
2022-08-30T06:22:02.044Z,3.35
2022-08-30T06:24:57.797Z,3.45
2022-08-30T06:27:45.263Z,3.00
2022-08-30T06:30:33.720Z,3.22
2022-08-30T06:33:20.777Z,3.70
2022-08-30T06:36:11.188Z,3.30
2022-08-30T06:38:59.035Z,3.67
2022-08-30T06:41:45.960Z,3.55
2022-08-30T06:44:33.227Z,3.60
2022-08-30T06:47:20.492Z,3.00
2022-08-30T06:50:11.734Z,2.78
2022-08-30T06:53:05.653Z,2.83
2022-08-30T06:56:01.191Z,2.60
2022-08-30T06:58:48.183Z,2.85
2022-08-30T07:01:35.290Z,2.88
2022-08-30T07:04:22.304Z,2.75
2022-08-30T07:07:11.032Z,2.50
2022-08-30T07:09:57.950Z,3.78
2022-08-30T07:12:45.136Z,7.10
2022-08-30T07:15:38.111Z,2.75
2022-08-30T07:18:44.365Z,2.60
2022-08-30T07:21:37.416Z,2.50
2022-08-30T07:24:25.138Z,2.33
2022-08-30T07:27:12.621Z,2.42
2022-08-30T07:30:01.279Z,2.58
2022-08-30T07:32:48.365Z,2.60
2022-08-30T07:35:35.640Z,3.10
2022-08-30T07:38:22.565Z,3.40
2022-08-30T07:41:09.762Z,2.85
2022-08-30T07:43:57.503Z,2.92
2022-08-30T07:46:44.640Z,2.65
2022-08-30T07:49:31.585Z,2.90
2022-08-30T07:52:18.666Z,2.75
2022-08-30T07:55:06.452Z,2.85
2022-08-30T07:57:53.628Z,2.80
2022-08-30T08:00:40.910Z,3.03
2022-08-30T08:03:30.026Z,3.42
2022-08-30T08:06:18.579Z,2.83
2022-08-30T08:09:06.035Z,3.00
2022-08-30T08:11:53.033Z,2.97
2022-08-30T08:14:41.535Z,3.10
2022-08-30T08:17:28.580Z,3.15
2022-08-30T08:20:16.252Z,3.47
2022-08-30T08:23:03.997Z,3.63
2022-08-30T08:25:50.983Z,3.30
2022-08-30T08:28:38.019Z,3.40
2022-08-30T08:31:33.311Z,3.20
2022-08-30T08:34:23.453Z,3.58
2022-08-30T08:37:10.476Z,3.47
2022-08-30T08:39:57.782Z,3.05
2022-08-30T08:43:00.808Z,3.42
2022-08-30T08:46:24.810Z,3.55
2022-08-30T08:49:11.914Z,3.38
2022-08-30T08:52:17.733Z,3.05
2022-08-30T08:55:12.591Z,3.65
2022-08-30T08:57:59.615Z,4.35
2022-08-30T09:00:46.679Z,3.28
2022-08-30T09:03:33.661Z,3.58
2022-08-30T09:06:34.091Z,3.10
2022-08-30T09:09:27.785Z,3.25
2022-08-30T09:12:15.027Z,3.63
2022-08-30T09:15:19.072Z,3.33
2022-08-30T09:18:19.007Z,3.60
2022-08-30T09:21:08.295Z,3.22
2022-08-30T09:23:59.234Z,3.05
2022-08-30T09:26:46.191Z,3.08
2022-08-30T09:29:33.233Z,3.58
2022-08-30T09:32:26.473Z,4.00
2022-08-30T09:35:19.355Z,3.47
2022-08-30T09:38:09.336Z,3.50
2022-08-30T09:40:59.199Z,3.15
2022-08-30T09:44:08.121Z,3.90
2022-08-30T09:47:01.549Z,3.85
2022-08-30T09:49:49.206Z,3.63
2022-08-30T09:53:02.150Z,4.10
2022-08-30T09:55:52.292Z,4.38
2022-08-30T09:58:48.913Z,4.00
2022-08-30T10:01:47.832Z,4.65
2022-08-30T10:04:47.260Z,4.78
2022-08-30T10:07:53.591Z,4.03
2022-08-30T10:10:49.144Z,4.32
2022-08-30T10:13:51.543Z,3.95
2022-08-30T10:17:01.877Z,3.75
2022-08-30T10:20:03.307Z,4.15
2022-08-30T10:25:44.114Z,3.10
2022-08-30T10:28:52.379Z,2.97
2022-08-30T10:32:28.452Z,3.05
2022-08-30T10:35:19.676Z,2.72
2022-08-30T10:38:15.126Z,2.90
2022-08-30T10:41:24.570Z,2.72
2022-08-30T10:44:20.151Z,2.70
2022-08-30T10:47:45.040Z,2.85
2022-08-30T10:50:42.607Z,2.35
2022-08-30T10:53:34.679Z,2.30
2022-08-30T10:56:26.338Z,2.40
2022-08-30T10:59:17.278Z,2.60
2022-08-30T11:02:14.460Z,2.90
2022-08-30T11:05:20.545Z,2.58
2022-08-30T11:08:24.240Z,2.53
2022-08-30T11:11:48.771Z,2.78
2022-08-30T11:14:40.404Z,2.60
2022-08-30T11:17:40.720Z,2.60
2022-08-30T11:20:36.484Z,2.53
2022-08-30T11:23:34.022Z,2.63
2022-08-30T11:26:45.900Z,2.70
2022-08-30T11:29:39.982Z,2.33
2022-08-30T11:33:00.764Z,2.33
2022-08-30T11:35:55.187Z,2.63
2022-08-30T11:38:42.279Z,2.70
2022-08-30T11:41:34.195Z,2.83
2022-08-30T11:44:22.273Z,2.15
2022-08-30T11:47:52.755Z,2.10
2022-08-30T11:50:54.352Z,3.03
2022-08-30T11:53:51.141Z,2.50
2022-08-30T11:56:56.861Z,2.67
2022-08-30T11:59:52.425Z,2.85
2022-08-30T12:02:45.177Z,2.33
2022-08-30T12:05:48.034Z,2.85
2022-08-30T12:08:35.227Z,2.67
2022-08-30T12:11:23.247Z,2.50
2022-08-30T12:14:52.185Z,2.90
2022-08-30T12:18:03.640Z,2.90
2022-08-30T12:20:51.254Z,2.78
2022-08-30T12:23:47.041Z,3.05
2022-08-30T12:26:39.530Z,3.10
2022-08-30T12:29:31.087Z,2.97
2022-08-30T12:32:20.605Z,2.72
2022-08-30T12:35:08.109Z,2.65
2022-08-30T12:38:00.159Z,2.50
2022-08-30T12:40:58.243Z,2.53
2022-08-30T12:43:52.018Z,2.42
2022-08-30T12:46:39.335Z,2.50
2022-08-30T12:49:30.149Z,2.83
2022-08-30T12:52:26.409Z,2.50
2022-08-30T12:55:20.393Z,2.60
2022-08-30T12:58:10.596Z,2.97
2022-08-30T13:01:31.206Z,2.67
2022-08-30T13:04:23.193Z,2.35
2022-08-30T13:07:10.815Z,2.35
2022-08-30T13:10:13.655Z,2.85
2022-08-30T13:13:06.375Z,2.30
2022-08-30T13:15:53.775Z,2.55
2022-08-30T13:18:40.896Z,2.67
2022-08-30T13:21:31.344Z,2.88
2022-08-30T13:24:21.326Z,2.70
2022-08-30T13:27:12.098Z,2.55
2022-08-30T13:30:13.292Z,2.45
2022-08-30T13:33:02.241Z,2.50
2022-08-30T13:35:49.329Z,2.55
2022-08-30T13:38:36.743Z,2.85
2022-08-30T13:41:24.591Z,3.17
2022-08-30T13:44:13.072Z,2.55
2022-08-30T13:50:08.563Z,2.67
2022-08-30T13:52:56.810Z,2.80
2022-08-30T13:55:44.508Z,3.05
2022-08-30T13:58:32.079Z,2.85
2022-08-30T14:01:19.808Z,2.65
2022-08-30T14:04:15.995Z,2.90
2022-08-30T14:07:20.260Z,2.72
2022-08-30T14:19:15.961Z,2.50
2022-08-30T14:22:03.188Z,2.45
2022-08-30T14:24:50.264Z,2.70
2022-08-30T14:27:37.320Z,2.60
2022-08-30T14:30:25.201Z,2.50
2022-08-30T14:33:13.417Z,2.40
2022-08-30T14:36:00.446Z,2.45
2022-08-30T14:38:48.578Z,2.38
2022-08-30T14:41:43.487Z,2.78
2022-08-30T14:44:45.745Z,2.85
2022-08-30T14:47:38.270Z,2.63
2022-08-30T14:50:25.270Z,2.53
2022-08-30T14:53:15.013Z,2.67
2022-08-30T14:56:08.306Z,2.50
2022-08-30T14:59:00.586Z,3.20
2022-08-30T15:01:47.791Z,2.95
2022-08-30T15:04:34.907Z,2.72
2022-08-30T15:07:21.886Z,2.58
2022-08-30T15:10:10.509Z,2.70
2022-08-30T15:12:58.064Z,2.63
2022-08-30T15:15:45.117Z,3.65
2022-08-30T15:18:32.143Z,4.07
2022-08-30T15:21:28.074Z,4.70
2022-08-30T15:24:18.678Z,3.92
2022-08-30T15:27:06.121Z,4.38
2022-08-30T15:29:53.318Z,4.53
2022-08-30T15:32:40.411Z,4.53
2022-08-30T15:35:30.253Z,5.22
2022-08-30T15:38:19.366Z,4.93
2022-08-30T15:41:10.912Z,5.35
2022-08-30T15:43:59.752Z,4.57
2022-08-30T15:46:46.832Z,8.43
2022-08-30T15:49:34.123Z,5.93
2022-08-30T15:52:21.177Z,6.72
2022-08-30T15:55:09.423Z,5.90
2022-08-30T15:57:56.642Z,5.93
2022-08-30T16:00:45.126Z,5.82
2022-08-30T16:03:33.750Z,6.05
2022-08-30T16:06:25.067Z,6.63
2022-08-30T16:09:12.206Z,5.90
2022-08-30T16:11:59.307Z,5.72
2022-08-30T16:14:46.301Z,5.57
2022-08-30T16:17:33.330Z,5.28
2022-08-30T16:20:20.422Z,5.57
2022-08-30T16:23:08.285Z,5.80
2022-08-30T16:25:55.257Z,5.78
2022-08-30T16:28:50.881Z,6.72
2022-08-30T16:31:37.978Z,5.90
2022-08-30T16:34:25.246Z,5.75
2022-08-30T16:37:12.963Z,5.65
2022-08-30T16:40:00.476Z,6.93
2022-08-30T16:42:48.385Z,6.05
2022-08-30T16:45:39.751Z,7.10
2022-08-30T16:48:27.187Z,5.30
2022-08-30T16:51:17.533Z,5.70
2022-08-30T16:54:07.695Z,5.03
2022-08-30T16:56:55.697Z,5.13
2022-08-30T16:59:44.475Z,5.10
2022-08-30T17:02:31.629Z,5.65
2022-08-30T17:05:18.925Z,5.10
2022-08-30T17:08:05.959Z,5.18
2022-08-30T17:10:52.985Z,5.00
2022-08-30T17:13:40.322Z,5.10
2022-08-30T17:16:28.087Z,5.18
2022-08-30T17:19:15.627Z,5.32
2022-08-30T17:22:14.076Z,5.30
2022-08-30T17:25:01.353Z,6.22
2022-08-30T17:27:48.476Z,4.93
2022-08-30T17:30:36.250Z,4.70
2022-08-30T17:33:24.417Z,4.40
2022-08-30T17:36:11.832Z,4.72
2022-08-30T17:38:58.837Z,5.20
2022-08-30T17:41:50.184Z,4.80
2022-08-30T17:44:38.120Z,5.53
2022-08-30T17:47:29.395Z,5.00
2022-08-30T17:50:23.170Z,4.85
2022-08-30T17:53:10.132Z,4.85
2022-08-30T17:55:57.178Z,5.38
2022-08-30T17:58:47.203Z,5.13
2022-08-30T18:01:34.800Z,4.35
2022-08-30T18:04:24.728Z,4.32
2022-08-30T18:07:13.376Z,4.40
2022-08-30T18:10:00.416Z,4.07
2022-08-30T18:12:48.184Z,3.88
2022-08-30T18:15:36.700Z,4.30
2022-08-30T18:18:25.544Z,3.70
2022-08-30T18:21:16.266Z,4.10
2022-08-30T18:24:04.870Z,4.35
2022-08-30T18:26:54.806Z,3.70
2022-08-30T18:29:42.114Z,3.70
2022-08-30T18:32:32.897Z,3.95
2022-08-30T18:35:23.229Z,3.58
2022-08-30T18:38:10.620Z,3.63
2022-08-30T18:41:00.166Z,3.55
2022-08-30T18:43:48.355Z,3.60
2022-08-30T18:46:35.407Z,3.58
2022-08-30T18:49:22.668Z,3.17
2022-08-30T18:52:11.226Z,3.92
2022-08-30T18:54:58.244Z,3.10
2022-08-30T18:57:45.888Z,3.15
2022-08-30T19:00:33.750Z,3.40
2022-08-30T19:03:21.688Z,3.20
2022-08-30T19:06:11.697Z,2.83
2022-08-30T19:08:58.714Z,3.03
2022-08-30T19:11:46.827Z,3.22
2022-08-30T19:14:33.869Z,2.95
2022-08-30T19:17:21.440Z,2.92
2022-08-30T19:20:10.043Z,2.95
2022-08-30T19:23:09.622Z,3.65
2022-08-30T19:25:57.279Z,2.85
2022-08-30T19:28:45.050Z,3.22
2022-08-30T19:31:32.819Z,3.20
2022-08-30T19:34:19.874Z,3.25
2022-08-30T19:37:09.206Z,2.92
2022-08-30T19:40:07.252Z,3.03
2022-08-30T19:42:54.849Z,3.05
2022-08-30T19:45:41.886Z,3.05
2022-08-30T19:48:32.689Z,3.03
2022-08-30T19:51:20.802Z,3.05
2022-08-30T19:54:08.887Z,3.45
2022-08-30T19:56:55.908Z,3.00
2022-08-30T19:59:42.962Z,3.08
2022-08-30T20:02:30.093Z,3.08
2022-08-30T20:05:17.210Z,2.67
2022-08-30T20:08:04.192Z,3.00
2022-08-30T20:10:51.797Z,2.88
2022-08-30T20:13:39.215Z,3.10
2022-08-30T20:16:33.037Z,2.75
2022-08-30T20:19:29.200Z,3.08
2022-08-30T20:22:16.566Z,3.30
2022-08-30T20:25:05.627Z,2.88
2022-08-30T20:27:59.442Z,2.67
2022-08-30T20:30:46.937Z,2.80
2022-08-30T20:33:37.589Z,2.75
2022-08-30T20:36:24.630Z,2.65
2022-08-30T20:39:14.459Z,3.30
2022-08-30T20:42:05.324Z,2.85
2022-08-30T20:44:53.151Z,2.90
2022-08-30T20:47:41.570Z,2.63
2022-08-30T20:50:28.621Z,2.58
2022-08-30T20:53:16.072Z,2.60
2022-08-30T20:56:03.608Z,3.30
2022-08-30T20:58:50.694Z,2.80
2022-08-30T21:01:38.956Z,3.08
2022-08-30T21:04:27.933Z,2.80
2022-08-30T21:07:15.132Z,3.00
2022-08-30T21:10:02.399Z,3.22
2022-08-30T21:12:49.721Z,2.70
2022-08-30T21:15:37.981Z,3.03
2022-08-30T21:18:29.697Z,3.10
2022-08-30T21:21:22.821Z,3.00
2022-08-30T21:24:10.476Z,2.78
2022-08-30T21:26:58.661Z,3.15
2022-08-30T21:29:45.742Z,3.03
2022-08-30T21:32:32.768Z,2.90
2022-08-30T21:35:38.348Z,2.92
2022-08-30T21:38:26.588Z,3.03
2022-08-30T21:41:13.666Z,2.95
2022-08-30T21:44:03.983Z,2.45
2022-08-30T21:46:52.527Z,2.97
2022-08-30T21:49:39.918Z,3.22
2022-08-30T21:52:26.903Z,3.28
2022-08-30T21:55:14.089Z,3.30
2022-08-30T21:58:01.303Z,2.70
2022-08-30T22:00:50.650Z,2.78
2022-08-30T22:03:37.951Z,3.10
2022-08-30T22:06:30.627Z,3.05
2022-08-30T22:09:21.408Z,2.97
2022-08-30T22:12:08.570Z,3.17
2022-08-30T22:14:55.513Z,2.72
2022-08-30T22:17:42.565Z,2.85
2022-08-30T22:20:30.539Z,2.90
2022-08-30T22:23:19.123Z,3.08
2022-08-30T22:26:09.131Z,2.85
2022-08-30T22:28:56.257Z,2.95
2022-08-30T22:31:43.550Z,3.40
2022-08-30T22:34:32.115Z,3.10
2022-08-30T22:37:19.169Z,2.80
2022-08-30T22:40:06.589Z,2.65
2022-08-30T22:42:53.607Z,2.85
2022-08-30T22:45:41.143Z,3.10
2022-08-30T22:48:28.127Z,2.88
2022-08-30T22:51:17.480Z,2.80
2022-08-30T22:54:06.356Z,3.10
2022-08-30T22:56:53.439Z,2.95
2022-08-30T22:59:40.833Z,3.13
2022-08-30T23:02:27.843Z,2.63
2022-08-30T23:05:16.531Z,2.90
2022-08-30T23:08:05.272Z,2.78
2022-08-30T23:10:52.669Z,3.05
2022-08-30T23:13:40.351Z,2.75
2022-08-30T23:16:27.315Z,2.75
2022-08-30T23:19:15.220Z,3.00
2022-08-30T23:22:02.140Z,2.83
2022-08-30T23:25:07.664Z,3.10
2022-08-30T23:28:21.989Z,2.90
2022-08-30T23:31:33.417Z,2.97
2022-08-30T23:34:39.019Z,2.80
2022-08-30T23:37:44.603Z,2.50
2022-08-30T23:40:52.474Z,2.63
2022-08-30T23:43:57.991Z,3.03
2022-08-30T23:47:03.631Z,3.20
2022-08-30T23:50:09.823Z,2.97
2022-08-30T23:53:15.318Z,2.92
2022-08-30T23:56:20.999Z,3.08
2022-08-30T23:59:26.418Z,3.00
